createdAt,value
2018-12-01T00:02:00.601Z,11.63
2018-12-01T00:04:29.389Z,16.53
2018-12-01T00:06:57.432Z,16.73
2018-12-01T00:09:24.417Z,16.73
2018-12-01T00:11:52.996Z,17.83
2018-12-01T00:14:20.044Z,15.97
2018-12-01T00:16:47.095Z,15.93
2018-12-01T00:19:14.138Z,16.10
2018-12-01T00:21:41.187Z,13.27
2018-12-01T00:24:08.133Z,19.73
2018-12-01T00:26:35.181Z,13.27
2018-12-01T00:29:02.235Z,15.83
2018-12-01T00:31:30.253Z,15.23
2018-12-01T00:33:57.249Z,14.47
2018-12-01T00:36:24.303Z,14.03
2018-12-01T00:38:54.930Z,16.23
2018-12-01T00:41:22.389Z,23.03
2018-12-01T00:43:49.441Z,20.40
2018-12-01T00:46:16.437Z,16.83
2018-12-01T00:48:43.436Z,19.57
2018-12-01T00:51:10.380Z,18.57
2018-12-01T00:53:37.432Z,18.97
2018-12-01T00:56:04.475Z,17.73
2018-12-01T00:58:31.522Z,20.90
2018-12-01T01:00:58.576Z,16.50
2018-12-01T01:03:25.618Z,14.07
2018-12-01T01:05:52.668Z,15.60
2018-12-01T01:08:19.723Z,21.27
2018-12-01T01:10:46.663Z,17.43
2018-12-01T01:13:13.612Z,16.87
2018-12-01T01:15:40.657Z,15.47
2018-12-01T01:18:09.447Z,17.13
2018-12-01T01:20:36.495Z,15.43
2018-12-01T01:23:03.551Z,15.13
2018-12-01T01:28:13.410Z,18.10
2018-12-01T01:30:40.459Z,20.20
2018-12-01T01:33:14.271Z,17.73
2018-12-01T01:35:41.315Z,15.63
2018-12-01T01:38:24.460Z,14.87
2018-12-01T01:40:59.797Z,16.40
2018-12-01T01:43:26.731Z,15.00
2018-12-01T01:45:53.682Z,18.53
2018-12-01T01:48:20.677Z,16.33
2018-12-01T01:50:47.676Z,17.13
2018-12-01T01:53:14.759Z,15.90
2018-12-01T01:55:41.771Z,19.20
2018-12-01T01:58:08.827Z,19.27
2018-12-01T02:00:35.871Z,15.37
2018-12-01T02:03:02.917Z,15.80
2018-12-01T02:05:29.969Z,12.83
2018-12-01T02:07:57.010Z,16.37
2018-12-01T02:10:24.009Z,17.67
2018-12-01T02:12:51.006Z,18.03
2018-12-01T02:15:18.053Z,13.50
2018-12-01T02:17:45.108Z,13.17
2018-12-01T02:20:12.150Z,12.67
2018-12-01T02:22:39.102Z,15.30
2018-12-01T02:25:06.149Z,17.43
2018-12-01T02:27:33.152Z,14.37
2018-12-01T02:30:00.141Z,14.23
2018-12-01T02:32:27.194Z,18.97
2018-12-01T02:34:54.243Z,17.00
2018-12-01T02:37:21.286Z,12.90
2018-12-01T02:39:48.334Z,12.83
2018-12-01T02:42:15.392Z,12.17
2018-12-01T02:44:48.268Z,13.67
2018-12-01T02:47:15.317Z,16.27
2018-12-01T02:49:42.307Z,12.00
2018-12-01T02:52:09.202Z,15.00
2018-12-01T02:54:36.257Z,16.03
2018-12-01T02:57:03.306Z,13.57
2018-12-01T02:59:30.359Z,11.70
2018-12-01T03:01:58.939Z,7.57
2018-12-01T03:04:25.987Z,8.53
2018-12-01T03:06:54.785Z,12.93
2018-12-01T03:09:21.828Z,12.27
2018-12-01T03:11:48.880Z,13.17
2018-12-01T03:14:15.890Z,13.87
2018-12-01T03:16:42.971Z,12.83
2018-12-01T03:19:10.025Z,17.13
2018-12-01T03:21:37.068Z,12.83
2018-12-01T03:24:04.634Z,11.07
2018-12-01T03:26:31.676Z,8.57
2018-12-01T03:28:58.726Z,6.97
2018-12-01T03:31:25.779Z,10.80
2018-12-01T03:33:52.822Z,10.60
2018-12-01T03:36:19.871Z,11.13
2018-12-01T03:38:47.943Z,13.43
2018-12-01T03:41:14.997Z,11.30
2018-12-01T03:43:42.042Z,12.40
2018-12-01T03:46:09.089Z,13.30
2018-12-01T03:48:37.679Z,7.83
2018-12-01T03:51:04.721Z,5.13
2018-12-01T03:53:31.770Z,10.10
2018-12-01T03:55:58.825Z,10.07
2018-12-01T03:58:25.866Z,12.50
2018-12-01T04:00:52.956Z,12.67
2018-12-01T04:03:19.972Z,10.03
2018-12-01T04:05:47.011Z,12.73
2018-12-01T04:08:14.063Z,10.17
2018-12-01T04:10:41.114Z,10.23
2018-12-01T04:13:08.157Z,13.73
2018-12-01T04:15:35.206Z,13.30
2018-12-01T04:18:02.264Z,13.60
2018-12-01T04:20:29.302Z,13.10
2018-12-01T04:22:56.351Z,10.97
2018-12-01T04:25:23.405Z,15.70
2018-12-01T04:27:50.448Z,20.93
2018-12-01T04:30:17.496Z,15.03
2018-12-01T04:32:44.551Z,15.50
2018-12-01T04:35:11.593Z,9.90
2018-12-01T04:37:39.565Z,16.50
2018-12-01T04:40:06.619Z,13.53
2018-12-01T04:42:33.768Z,15.50
2018-12-01T04:45:00.811Z,12.53
2018-12-01T04:47:27.862Z,13.07
2018-12-01T04:49:54.915Z,17.50
2018-12-01T04:52:21.962Z,11.43
2018-12-01T04:54:49.007Z,12.77
2018-12-01T04:57:16.060Z,9.77
2018-12-01T04:59:43.110Z,11.40
2018-12-01T05:02:10.150Z,9.73
2018-12-01T05:04:37.207Z,14.33
2018-12-01T05:07:04.264Z,11.03
2018-12-01T05:09:31.296Z,13.37
2018-12-01T05:11:58.350Z,11.43
2018-12-01T05:14:25.395Z,13.67
2018-12-01T05:16:52.441Z,7.07
2018-12-01T05:19:20.464Z,11.80
2018-12-01T05:21:48.380Z,11.20
2018-12-01T05:24:15.433Z,11.57
2018-12-01T05:26:42.888Z,14.13
2018-12-01T05:29:09.946Z,13.40
2018-12-01T05:31:36.987Z,11.53
2018-12-01T05:34:04.034Z,13.07
2018-12-01T05:36:31.088Z,8.53
2018-12-01T05:38:58.131Z,11.20
2018-12-01T05:41:25.178Z,11.60
2018-12-01T05:43:52.233Z,10.67
2018-12-01T05:46:19.276Z,13.37
2018-12-01T05:48:46.333Z,11.60
2018-12-01T05:51:13.379Z,10.23
2018-12-01T05:53:40.422Z,11.27
2018-12-01T05:56:07.470Z,11.23
2018-12-01T05:58:34.535Z,11.03
2018-12-01T06:01:01.577Z,10.13
2018-12-01T06:03:28.616Z,12.07
2018-12-01T06:05:55.669Z,10.30
2018-12-01T06:08:22.712Z,8.90
2018-12-01T06:10:49.761Z,11.07
2018-12-01T06:13:18.551Z,11.93
2018-12-01T06:15:45.808Z,11.63
2018-12-01T06:18:14.286Z,8.97
2018-12-01T06:20:43.075Z,7.70
2018-12-01T06:23:10.124Z,12.97
2018-12-01T06:25:37.177Z,12.00
2018-12-01T06:28:04.175Z,11.70
2018-12-01T06:33:18.183Z,10.97
2018-12-01T06:35:46.769Z,9.10
2018-12-01T06:38:13.920Z,8.30
2018-12-01T06:40:40.973Z,11.73
2018-12-01T06:43:08.017Z,11.20
2018-12-01T06:45:35.582Z,12.07
2018-12-01T06:48:02.625Z,9.57
2018-12-01T06:50:30.644Z,12.57
2018-12-01T06:52:57.564Z,11.77
2018-12-01T06:55:24.497Z,11.00
2018-12-01T06:57:51.537Z,11.30
2018-12-01T07:00:18.585Z,9.77
2018-12-01T07:02:45.638Z,10.13
2018-12-01T07:05:12.681Z,13.50
2018-12-01T07:07:39.634Z,12.73
2018-12-01T07:10:06.677Z,9.63
2018-12-01T07:12:33.627Z,8.77
2018-12-01T07:15:00.671Z,10.47
2018-12-01T07:17:27.719Z,11.53
2018-12-01T07:19:54.773Z,67.60
2018-12-01T07:22:21.713Z,217.67
2018-12-01T07:24:48.767Z,20.07
2018-12-01T07:27:17.067Z,10.33
2018-12-01T07:29:44.702Z,14.00
2018-12-01T07:32:11.853Z,11.70
2018-12-01T07:34:38.906Z,12.70
2018-12-01T07:37:06.733Z,16.80
2018-12-01T07:39:33.718Z,10.53
2018-12-01T07:42:00.719Z,12.63
2018-12-01T07:44:27.714Z,14.97
2018-12-01T07:50:00.414Z,8.97
2018-12-01T07:52:27.464Z,13.47
2018-12-01T07:54:54.519Z,13.33
2018-12-01T07:57:21.559Z,6.80
2018-12-01T07:59:48.609Z,10.30
2018-12-01T08:02:15.554Z,7.17
2018-12-01T08:04:42.704Z,13.37
2018-12-01T08:07:09.752Z,12.23
2018-12-01T08:09:36.806Z,11.67
2018-12-01T08:12:03.852Z,11.80
2018-12-01T08:14:32.436Z,9.03
2018-12-01T08:16:59.487Z,8.60
2018-12-01T08:19:26.481Z,8.80
2018-12-01T08:21:53.482Z,11.63
2018-12-01T08:24:22.266Z,11.43
2018-12-01T08:26:49.213Z,4.90
2018-12-01T08:29:16.786Z,9.33
2018-12-01T08:31:45.357Z,6.03
2018-12-01T08:34:12.308Z,8.63
2018-12-01T08:36:39.250Z,8.17
2018-12-01T08:39:06.961Z,7.03
2018-12-01T08:41:33.961Z,8.90
2018-12-01T08:44:01.010Z,9.63
2018-12-01T08:46:28.313Z,9.43
2018-12-01T08:48:55.669Z,9.50
2018-12-01T08:51:22.710Z,6.40
2018-12-01T08:53:49.823Z,9.90
2018-12-01T08:56:16.866Z,11.33
2018-12-01T08:58:45.051Z,10.90
2018-12-01T09:01:12.089Z,20.80
2018-12-01T09:03:39.137Z,8.53
2018-12-01T09:06:06.192Z,9.40
2018-12-01T09:08:33.236Z,7.60
2018-12-01T09:11:00.282Z,6.30
2018-12-01T09:13:27.336Z,9.43
2018-12-01T09:15:54.381Z,16.57
2018-12-01T09:18:21.846Z,10.80
2018-12-01T09:20:48.896Z,7.27
2018-12-01T09:23:15.941Z,9.13
2018-12-01T09:25:43.092Z,7.60
2018-12-01T09:28:10.135Z,7.17
2018-12-01T09:30:37.191Z,7.23
2018-12-01T09:33:04.238Z,5.63
2018-12-01T09:35:31.281Z,10.30
2018-12-01T09:37:58.329Z,7.73
2018-12-01T09:40:25.384Z,6.10
2018-12-01T09:42:53.245Z,11.67
2018-12-01T09:45:20.299Z,9.93
2018-12-01T09:47:47.241Z,9.27
2018-12-01T09:50:14.293Z,8.60
2018-12-01T09:52:41.339Z,2.40
2018-12-01T09:55:08.390Z,8.23
2018-12-01T09:57:35.439Z,6.73
2018-12-01T10:00:02.483Z,7.20
2018-12-01T10:02:29.745Z,9.07
2018-12-01T10:04:56.787Z,7.53
2018-12-01T10:07:24.666Z,7.70
2018-12-01T10:09:52.776Z,6.33
2018-12-01T10:12:19.978Z,6.17
2018-12-01T10:14:48.665Z,3.10
2018-12-01T10:17:15.718Z,7.43
2018-12-01T10:19:43.176Z,3.87
2018-12-01T10:22:10.221Z,6.27
2018-12-01T10:24:37.270Z,6.03
2018-12-01T10:27:04.420Z,6.73
2018-12-01T10:29:31.473Z,9.17
2018-12-01T10:31:58.517Z,6.97
2018-12-01T10:34:25.517Z,7.50
2018-12-01T10:36:52.516Z,8.33
2018-12-01T10:39:19.563Z,8.87
2018-12-01T10:41:46.630Z,9.03
2018-12-01T10:44:13.659Z,7.90
2018-12-01T10:46:42.759Z,9.57
2018-12-01T10:49:09.807Z,10.07
2018-12-01T10:51:36.851Z,7.63
2018-12-01T10:54:03.844Z,11.53
2018-12-01T10:56:30.796Z,9.60
2018-12-01T10:58:57.675Z,8.90
2018-12-01T11:01:27.508Z,8.97
2018-12-01T11:03:56.700Z,9.20
2018-12-01T11:06:23.652Z,9.63
2018-12-01T11:08:50.595Z,9.43
2018-12-01T11:11:17.647Z,9.60
2018-12-01T11:13:44.691Z,8.40
2018-12-01T11:16:11.739Z,9.43
2018-12-01T11:18:38.792Z,9.70
2018-12-01T11:21:19.318Z,9.10
2018-12-01T11:23:48.823Z,12.03
2018-12-01T11:26:17.225Z,10.60
2018-12-01T11:28:45.214Z,11.93
2018-12-01T11:31:13.359Z,12.57
2018-12-01T11:33:41.868Z,12.00
2018-12-01T11:36:10.232Z,14.10
2018-12-01T11:38:38.618Z,14.43
2018-12-01T11:41:06.784Z,15.33
2018-12-01T11:43:35.246Z,11.00
2018-12-01T11:46:02.988Z,13.67
2018-12-01T11:48:31.311Z,26.77
2018-12-01T11:50:59.628Z,25.90
2018-12-01T11:53:28.138Z,27.47
2018-12-01T11:55:56.568Z,12.73
2018-12-01T11:58:24.810Z,11.47
2018-12-01T12:00:53.411Z,11.53
2018-12-01T12:03:21.144Z,12.00
2018-12-01T12:05:50.414Z,13.83
2018-12-01T12:08:18.590Z,14.63
2018-12-01T12:10:46.697Z,14.57
2018-12-01T12:13:15.021Z,13.90
2018-12-01T12:15:43.230Z,10.73
2018-12-01T12:18:12.809Z,12.67
2018-12-01T12:20:41.065Z,15.17
2018-12-01T12:23:08.998Z,14.77
2018-12-01T12:25:37.404Z,13.07
2018-12-01T12:28:06.335Z,13.00
2018-12-01T12:30:35.620Z,12.00
2018-12-01T12:33:04.056Z,11.77
2018-12-01T12:35:33.654Z,16.63
2018-12-01T12:38:01.732Z,13.77
2018-12-01T12:40:30.634Z,13.97
2018-12-01T12:46:30.421Z,11.43
2018-12-01T12:48:58.080Z,11.80
2018-12-01T12:51:26.814Z,14.07
2018-12-01T12:53:54.482Z,12.67
2018-12-01T12:56:22.358Z,12.90
2018-12-01T12:58:50.171Z,14.87
2018-12-01T13:01:18.135Z,15.53
2018-12-01T13:03:45.852Z,14.47
2018-12-01T13:06:12.854Z,15.20
2018-12-01T13:08:39.895Z,15.13
2018-12-01T13:11:06.896Z,12.07
2018-12-01T13:13:34.094Z,15.03
2018-12-01T13:16:01.149Z,14.30
2018-12-01T13:18:28.196Z,15.50
2018-12-01T13:20:55.240Z,13.27
2018-12-01T13:23:22.293Z,19.03
2018-12-01T13:25:49.336Z,12.50
2018-12-01T13:28:16.423Z,14.70
2018-12-01T13:30:43.442Z,15.70
2018-12-01T13:33:10.488Z,13.73
2018-12-01T13:35:37.439Z,16.63
2018-12-01T13:38:04.478Z,13.77
2018-12-01T13:40:31.530Z,14.47
2018-12-01T13:42:58.580Z,16.17
2018-12-01T13:45:25.634Z,14.03
2018-12-01T13:47:52.671Z,19.40
2018-12-01T13:50:19.728Z,14.67
2018-12-01T13:52:46.780Z,13.07
2018-12-01T13:55:13.817Z,14.17
2018-12-01T13:57:41.684Z,13.73
2018-12-01T14:00:08.734Z,13.43
2018-12-01T14:02:35.884Z,12.20
2018-12-01T14:05:02.939Z,12.47
2018-12-01T14:07:29.981Z,13.70
2018-12-01T14:09:57.030Z,13.03
2018-12-01T14:12:24.085Z,15.97
2018-12-01T14:14:51.127Z,12.53
2018-12-01T14:17:18.179Z,16.67
2018-12-01T14:19:45.230Z,13.90
2018-12-01T14:22:12.479Z,16.97
2018-12-01T14:24:39.531Z,15.23
2018-12-01T14:27:06.575Z,13.40
2018-12-01T14:29:33.625Z,17.80
2018-12-01T14:32:00.677Z,14.27
2018-12-01T14:34:27.720Z,15.20
2018-12-01T14:36:55.029Z,14.20
2018-12-01T14:39:22.023Z,16.30
2018-12-01T14:41:49.071Z,16.27
2018-12-01T14:44:16.133Z,16.27
2018-12-01T14:46:43.276Z,15.07
2018-12-01T14:49:10.216Z,14.17
2018-12-01T14:51:37.982Z,18.43
2018-12-01T14:54:05.036Z,17.97
2018-12-01T14:56:32.079Z,19.47
2018-12-01T14:58:59.128Z,17.50
2018-12-01T15:01:26.511Z,15.20
2018-12-01T15:03:53.532Z,20.30
2018-12-01T15:06:20.580Z,17.53
2018-12-01T15:08:47.527Z,16.13
2018-12-01T15:11:14.574Z,16.87
2018-12-01T15:13:41.630Z,18.70
2018-12-01T15:16:08.630Z,21.80
2018-12-01T15:18:36.337Z,18.33
2018-12-01T15:21:03.389Z,22.53
2018-12-01T15:23:31.251Z,28.57
2018-12-01T15:25:58.304Z,34.40
2018-12-01T15:28:25.353Z,32.73
2018-12-01T15:30:52.500Z,33.33
2018-12-01T15:33:19.548Z,23.30
2018-12-01T15:35:46.603Z,21.07
2018-12-01T15:38:15.186Z,20.07
2018-12-01T15:40:44.129Z,23.50
2018-12-01T15:43:11.127Z,22.83
2018-12-01T15:45:40.061Z,20.07
2018-12-01T15:48:08.291Z,22.37
2018-12-01T15:50:36.976Z,23.07
2018-12-01T15:53:04.031Z,23.93
2018-12-01T15:55:32.769Z,20.77
2018-12-01T15:57:59.761Z,19.20
2018-12-01T16:00:28.450Z,25.60
2018-12-01T16:02:56.477Z,24.60
2018-12-01T16:05:23.472Z,25.60
2018-12-01T16:07:50.515Z,27.20
2018-12-01T16:10:17.563Z,29.30
2018-12-01T16:12:44.716Z,27.10
2018-12-01T16:15:12.423Z,23.43
2018-12-01T16:17:39.427Z,20.27
2018-12-01T16:20:06.474Z,21.70
2018-12-01T16:22:33.529Z,22.40
2018-12-01T16:25:00.574Z,20.30
2018-12-01T16:27:27.525Z,18.00
2018-12-01T16:29:54.571Z,17.97
2018-12-01T16:32:21.521Z,24.80
2018-12-01T16:34:48.564Z,23.93
2018-12-01T16:37:15.564Z,20.73
2018-12-01T16:39:42.864Z,18.30
2018-12-01T16:42:10.219Z,19.87
2018-12-01T16:44:37.292Z,17.50
2018-12-01T16:47:04.317Z,24.37
2018-12-01T16:49:31.364Z,21.00
2018-12-01T16:51:58.421Z,28.63
2018-12-01T16:54:25.461Z,28.73
2018-12-01T16:56:53.336Z,28.63
2018-12-01T16:59:20.379Z,28.03
2018-12-01T17:01:47.427Z,24.37
2018-12-01T17:04:14.988Z,24.17
2018-12-01T17:06:44.493Z,27.70
2018-12-01T17:09:11.439Z,31.03
2018-12-01T17:11:38.488Z,29.60
2018-12-01T17:14:06.355Z,41.53
2018-12-01T17:16:33.404Z,35.67
2018-12-01T17:19:00.460Z,32.53
2018-12-01T17:21:29.146Z,29.03
2018-12-01T17:23:56.189Z,38.07
2018-12-01T17:26:23.236Z,48.03
2018-12-01T17:28:50.291Z,51.27
2018-12-01T17:31:17.336Z,34.13
2018-12-01T17:33:45.102Z,50.70
2018-12-01T17:36:12.148Z,37.40
2018-12-01T17:38:39.299Z,37.70
2018-12-01T17:41:07.991Z,27.33
2018-12-01T17:43:35.040Z,29.13
2018-12-01T17:46:03.421Z,27.63
2018-12-01T17:48:30.467Z,35.37
2018-12-01T17:50:57.515Z,28.40
2018-12-01T17:53:24.566Z,29.43
2018-12-01T17:55:51.609Z,30.20
2018-12-01T17:58:18.658Z,32.47
2018-12-01T18:00:45.712Z,32.10
2018-12-01T18:03:12.755Z,34.00
2018-12-01T18:05:39.805Z,38.30
2018-12-01T18:08:06.857Z,34.57
2018-12-01T18:10:34.623Z,34.73
2018-12-01T18:13:01.623Z,30.83
2018-12-01T18:15:28.774Z,36.23
2018-12-01T18:17:55.769Z,30.63
2018-12-01T18:20:24.056Z,35.67
2018-12-01T18:22:51.192Z,37.77
2018-12-01T18:25:18.345Z,39.90
2018-12-01T18:27:45.294Z,37.17
2018-12-01T18:30:12.336Z,40.77
2018-12-01T18:32:39.290Z,39.03
2018-12-01T18:35:06.332Z,33.07
2018-12-01T18:37:33.333Z,32.60
2018-12-01T18:40:01.355Z,32.37
2018-12-01T18:42:28.399Z,35.80
2018-12-01T18:44:55.447Z,38.07
2018-12-01T18:47:22.394Z,38.37
2018-12-01T18:49:49.350Z,40.37
2018-12-01T18:52:17.115Z,38.93
2018-12-01T18:54:44.153Z,42.53
2018-12-01T18:57:11.205Z,46.83
2018-12-01T18:59:38.764Z,55.60
2018-12-01T19:02:05.811Z,66.97
2018-12-01T19:04:36.955Z,63.00
2018-12-01T19:07:04.009Z,62.03
2018-12-01T19:09:31.053Z,53.67
2018-12-01T19:11:58.409Z,51.33
2018-12-01T19:14:25.462Z,72.40
2018-12-01T19:16:52.506Z,83.10
2018-12-01T19:19:22.421Z,75.77
2018-12-01T19:21:52.034Z,58.43
2018-12-01T19:24:19.087Z,54.80
2018-12-01T19:26:46.134Z,117.27
2018-12-01T19:29:13.177Z,50.50
2018-12-01T19:31:42.479Z,53.97
2018-12-01T19:34:10.966Z,60.10
2018-12-01T19:36:38.007Z,55.73
2018-12-01T19:39:05.113Z,52.20
2018-12-01T19:41:32.117Z,52.07
2018-12-01T19:43:59.152Z,60.03
2018-12-01T19:46:26.204Z,62.43
2018-12-01T19:48:53.255Z,72.70
2018-12-01T19:51:20.300Z,118.20
2018-12-01T19:53:47.347Z,150.33
2018-12-01T19:59:12.272Z,33.97
2018-12-01T20:01:39.316Z,51.50
2018-12-01T20:04:06.364Z,51.40
2018-12-01T20:06:33.419Z,45.20
2018-12-01T20:09:00.877Z,40.73
2018-12-01T20:11:27.512Z,48.60
2018-12-01T20:13:54.564Z,46.40
2018-12-01T20:16:21.607Z,92.37
2018-12-01T20:18:48.663Z,57.23
2018-12-01T20:21:15.713Z,30.40
2018-12-01T20:23:42.705Z,32.70
2018-12-01T20:26:09.704Z,41.67
2018-12-01T20:31:11.476Z,30.27
2018-12-01T20:33:38.422Z,39.20
2018-12-01T20:36:08.519Z,37.23
2018-12-01T20:38:34.061Z,41.67
2018-12-01T20:41:02.750Z,36.83
2018-12-01T20:43:29.790Z,31.47
2018-12-01T20:45:56.839Z,30.27
2018-12-01T20:48:24.298Z,35.67
2018-12-01T20:50:51.351Z,30.77
2018-12-01T20:53:18.395Z,36.53
2018-12-01T20:55:45.961Z,40.43
2018-12-01T20:58:13.112Z,38.43
2018-12-01T21:00:40.155Z,41.73
2018-12-01T21:03:07.151Z,35.20
2018-12-01T21:05:34.150Z,44.03
2018-12-01T21:08:02.509Z,34.50
2018-12-01T21:10:28.253Z,37.53
2018-12-01T21:12:55.295Z,28.90
2018-12-01T21:15:22.343Z,26.10
2018-12-01T21:17:49.398Z,29.93
2018-12-01T21:20:16.442Z,39.53
2018-12-01T21:22:43.489Z,42.10
2018-12-01T21:25:10.543Z,24.40
2018-12-01T21:27:37.586Z,25.97
2018-12-01T21:30:04.587Z,28.30
2018-12-01T21:32:31.580Z,26.90
2018-12-01T21:34:58.630Z,28.47
2018-12-01T21:37:25.685Z,29.43
2018-12-01T21:39:52.726Z,36.60
2018-12-01T21:42:19.719Z,38.00
2018-12-01T21:44:46.721Z,33.23
2018-12-01T21:47:13.769Z,36.27
2018-12-01T21:49:40.823Z,35.80
2018-12-01T21:52:07.763Z,40.40
2018-12-01T21:54:34.819Z,46.13
2018-12-01T21:57:02.011Z,48.03
2018-12-01T21:59:28.910Z,40.20
2018-12-01T22:01:55.963Z,37.00
2018-12-01T22:04:23.007Z,32.03
2018-12-01T22:06:49.958Z,33.13
2018-12-01T22:09:17.001Z,30.20
2018-12-01T22:11:44.050Z,35.17
2018-12-01T22:14:11.509Z,30.40
2018-12-01T22:16:38.563Z,26.47
2018-12-01T22:19:05.609Z,35.87
2018-12-01T22:21:33.065Z,34.83
2018-12-01T22:24:00.114Z,32.03
2018-12-01T22:26:27.170Z,28.43
2018-12-01T22:28:54.111Z,30.80
2018-12-01T22:31:21.162Z,33.13
2018-12-01T22:33:51.175Z,36.27
2018-12-01T22:36:18.243Z,30.43
2018-12-01T22:38:45.272Z,33.03
2018-12-01T22:41:12.319Z,33.83
2018-12-01T22:43:39.376Z,36.30
2018-12-01T22:46:07.138Z,37.13
2018-12-01T22:48:34.182Z,32.07
2018-12-01T22:51:01.230Z,34.97
2018-12-01T22:53:28.285Z,31.93
2018-12-01T22:55:55.328Z,27.43
2018-12-01T22:58:22.376Z,29.33
2018-12-01T23:00:49.740Z,21.90
2018-12-01T23:03:16.779Z,19.97
2018-12-01T23:05:48.749Z,21.73
2018-12-01T23:08:15.798Z,18.80
2018-12-01T23:10:42.881Z,22.80
2018-12-01T23:13:09.889Z,18.60
2018-12-01T23:15:36.944Z,18.20
2018-12-01T23:18:04.095Z,17.33
2018-12-01T23:20:31.139Z,18.83
2018-12-01T23:22:58.186Z,21.00
2018-12-01T23:25:25.241Z,16.80
2018-12-01T23:27:52.283Z,18.87
2018-12-01T23:30:19.288Z,16.90
2018-12-01T23:32:46.283Z,15.80
2018-12-01T23:35:13.328Z,15.17
2018-12-01T23:37:40.380Z,18.23
2018-12-01T23:40:07.373Z,13.23
2018-12-01T23:42:34.375Z,16.37
2018-12-01T23:45:01.419Z,16.73
2018-12-01T23:47:28.468Z,20.50
2018-12-01T23:49:55.523Z,19.70
2018-12-01T23:52:22.769Z,18.93
2018-12-01T23:54:49.826Z,22.37
2018-12-01T23:57:16.865Z,19.47
2018-12-01T23:59:43.916Z,11.93
